createdAt,value
2022-11-22T00:04:12.611Z,3.60
2022-11-22T00:05:13.590Z,3.60
2022-11-22T00:06:13.457Z,3.80
2022-11-22T00:07:13.408Z,3.40
2022-11-22T00:22:51.168Z,2.80
2022-11-22T00:26:14.185Z,4.10
2022-11-22T00:27:14.767Z,3.30
2022-11-22T00:28:14.560Z,2.90
2022-11-22T00:29:14.625Z,3.10
2022-11-22T00:30:14.552Z,3.10
2022-11-22T00:31:14.578Z,3.80
2022-11-22T00:32:14.580Z,3.80
2022-11-22T00:33:27.117Z,4.50
2022-11-22T00:34:14.565Z,3.30
2022-11-22T00:35:14.554Z,3.30
2022-11-22T00:36:14.482Z,3.20
2022-11-22T00:37:14.511Z,3.20
2022-11-22T00:38:14.500Z,2.90
2022-11-22T00:39:14.465Z,3.80
2022-11-22T00:40:14.439Z,3.60
2022-11-22T00:41:14.418Z,3.20
2022-11-22T00:42:14.371Z,3.00
2022-11-22T00:43:14.385Z,3.90
2022-11-22T00:44:14.378Z,2.70
2022-11-22T00:46:14.069Z,3.20
2022-11-22T00:47:14.655Z,3.70
2022-11-22T00:48:14.451Z,3.40
2022-11-22T00:49:14.484Z,2.70
2022-11-22T00:50:14.404Z,2.40
2022-11-22T00:51:14.381Z,2.70
2022-11-22T00:52:14.404Z,2.50
2022-11-22T00:57:50.150Z,2.40
2022-11-22T01:00:10.177Z,2.30
2022-11-22T01:02:22.564Z,3.00
2022-11-22T01:03:23.505Z,5.10
2022-11-22T01:04:23.129Z,2.20
2022-11-22T01:09:46.112Z,2.20
2022-11-22T01:10:46.943Z,3.00
2022-11-22T01:11:46.923Z,2.30
2022-11-22T01:12:46.776Z,4.00
2022-11-22T01:13:47.203Z,1.40
2022-11-22T01:19:41.563Z,3.70
2022-11-22T01:20:42.348Z,1.80
2022-11-22T01:21:42.268Z,1.60
2022-11-22T01:27:13.132Z,1.80
2022-11-22T01:28:14.042Z,2.30
2022-11-22T01:29:13.851Z,2.50
2022-11-22T01:30:13.781Z,2.70
2022-11-22T01:31:13.782Z,2.60
2022-11-22T01:32:13.766Z,2.00
2022-11-22T01:33:13.792Z,2.40
2022-11-22T01:36:58.919Z,3.40
2022-11-22T01:40:40.573Z,1.90
2022-11-22T01:41:41.573Z,1.60
2022-11-22T01:42:41.405Z,2.00
2022-11-22T01:45:22.876Z,2.50
2022-11-22T01:46:23.857Z,2.70
2022-11-22T01:47:23.631Z,1.90
2022-11-22T01:48:30.926Z,2.80
2022-11-22T01:49:23.800Z,1.40
2022-11-22T01:50:23.524Z,2.60
2022-11-22T01:51:23.518Z,1.80
2022-11-22T01:52:23.505Z,2.00
2022-11-22T01:53:23.469Z,2.90
2022-11-22T01:54:23.477Z,2.10
2022-11-22T01:55:23.485Z,2.00
2022-11-22T01:56:23.463Z,2.40
2022-11-22T02:00:34.758Z,1.70
2022-11-22T02:01:35.741Z,3.80
2022-11-22T02:02:35.724Z,3.10
2022-11-22T02:03:35.622Z,2.20
2022-11-22T02:04:35.506Z,1.70
2022-11-22T02:05:35.534Z,1.40
2022-11-22T02:06:35.513Z,1.50
2022-11-22T02:07:35.555Z,2.30
2022-11-22T02:08:35.451Z,2.10
2022-11-22T02:09:35.490Z,1.80
2022-11-22T02:10:35.475Z,2.70
2022-11-22T02:11:35.465Z,1.90
2022-11-22T02:12:35.408Z,1.30
2022-11-22T02:13:35.417Z,1.10
2022-11-22T02:14:35.468Z,1.20
2022-11-22T02:15:35.515Z,1.40
2022-11-22T02:20:58.659Z,1.60
2022-11-22T02:21:59.400Z,1.20
2022-11-22T02:25:39.151Z,0.90
2022-11-22T02:26:40.014Z,1.30
2022-11-22T02:27:40.012Z,1.50
2022-11-22T02:28:39.871Z,1.10
2022-11-22T02:29:39.861Z,1.50
2022-11-22T02:30:39.903Z,1.20
2022-11-22T02:31:39.872Z,1.00
2022-11-22T02:38:49.862Z,3.10
2022-11-22T02:39:50.582Z,1.60
2022-11-22T02:40:50.606Z,2.70
2022-11-22T02:41:50.515Z,1.20
2022-11-22T02:42:50.466Z,1.30
2022-11-22T02:43:50.433Z,1.40
2022-11-22T02:44:50.451Z,2.70
2022-11-22T02:45:50.470Z,1.90
2022-11-22T02:46:50.477Z,2.50
2022-11-22T02:47:50.394Z,3.10
2022-11-22T02:48:50.385Z,1.80
2022-11-22T02:49:50.488Z,2.40
2022-11-22T02:50:50.409Z,2.80
2022-11-22T02:51:50.376Z,2.50
2022-11-22T02:52:50.308Z,1.80
2022-11-22T02:53:50.334Z,2.00
2022-11-22T02:54:50.313Z,1.60
2022-11-22T02:55:50.330Z,0.70
2022-11-22T02:56:50.280Z,2.00
2022-11-22T02:57:50.297Z,1.20
2022-11-22T02:58:50.309Z,1.00
2022-11-22T02:59:50.232Z,1.80
2022-11-22T03:00:50.326Z,1.30
2022-11-22T03:01:50.277Z,1.30
2022-11-22T03:02:50.183Z,1.30
2022-11-22T03:03:50.177Z,1.00
2022-11-22T03:04:50.163Z,1.10
2022-11-22T03:05:50.183Z,0.90
2022-11-22T03:06:50.177Z,2.40
2022-11-22T03:07:50.187Z,1.90
2022-11-22T03:08:55.872Z,1.40
2022-11-22T03:09:50.113Z,1.00
2022-11-22T03:10:50.109Z,1.00
2022-11-22T03:11:50.179Z,0.50
2022-11-22T03:12:50.072Z,0.60
2022-11-22T03:13:50.057Z,1.10
2022-11-22T03:14:50.083Z,0.90
2022-11-22T03:15:50.042Z,4.80
2022-11-22T03:21:35.435Z,1.80
2022-11-22T03:22:36.239Z,1.10
2022-11-22T03:23:36.186Z,1.00
2022-11-22T03:24:36.135Z,0.90
2022-11-22T03:25:36.253Z,2.40
2022-11-22T03:28:07.595Z,1.50
2022-11-22T03:29:08.504Z,1.60
2022-11-22T03:30:08.315Z,0.80
2022-11-22T03:31:08.276Z,1.60
2022-11-22T03:32:08.296Z,1.70
2022-11-22T03:33:08.314Z,2.50
2022-11-22T03:34:08.303Z,1.40
2022-11-22T03:35:08.288Z,1.60
2022-11-22T03:40:28.398Z,2.00
2022-11-22T03:41:29.214Z,1.60
2022-11-22T03:42:28.975Z,1.20
2022-11-22T03:43:29.055Z,0.80
2022-11-22T03:48:14.551Z,2.80
2022-11-22T03:49:15.507Z,2.70
2022-11-22T03:50:15.266Z,2.10
2022-11-22T03:51:15.272Z,1.10
2022-11-22T03:53:42.237Z,2.60
2022-11-22T03:54:43.306Z,1.80
2022-11-22T03:55:43.033Z,2.30
2022-11-22T03:56:42.985Z,0.80
2022-11-22T03:57:43.032Z,1.80
2022-11-22T04:03:28.802Z,1.10
2022-11-22T04:04:29.666Z,2.00
2022-11-22T04:05:29.390Z,2.40
2022-11-22T04:09:05.302Z,1.10
2022-11-22T04:10:06.218Z,1.20
2022-11-22T04:11:05.820Z,3.20
2022-11-22T04:12:05.887Z,3.70
2022-11-22T04:13:05.861Z,1.60
2022-11-22T04:22:41.911Z,2.50
2022-11-22T04:23:42.744Z,1.40
2022-11-22T04:24:42.624Z,2.70
2022-11-22T04:25:42.650Z,3.80
2022-11-22T04:26:42.602Z,2.30
2022-11-22T04:27:42.566Z,2.00
2022-11-22T04:29:08.614Z,1.00
2022-11-22T04:31:27.736Z,2.10
2022-11-22T04:32:28.618Z,4.10
2022-11-22T04:33:28.456Z,0.90
2022-11-22T04:36:46.780Z,1.40
2022-11-22T04:39:45.712Z,2.00
2022-11-22T04:40:45.119Z,2.20
2022-11-22T04:41:44.851Z,2.10
2022-11-22T04:42:44.849Z,1.40
2022-11-22T04:51:05.063Z,4.50
2022-11-22T04:52:05.936Z,1.80
2022-11-22T04:53:05.598Z,3.60
2022-11-22T04:54:05.691Z,3.80
2022-11-22T04:57:27.350Z,3.50
2022-11-22T05:00:55.226Z,2.40
2022-11-22T05:01:56.036Z,3.70
2022-11-22T05:02:55.996Z,3.40
2022-11-22T05:03:55.894Z,4.70
2022-11-22T05:04:56.013Z,3.00
2022-11-22T05:07:19.842Z,6.00
2022-11-22T05:10:28.183Z,3.70
2022-11-22T05:13:49.526Z,4.80
2022-11-22T05:15:44.060Z,3.40
2022-11-22T05:16:44.859Z,3.40
2022-11-22T05:21:04.012Z,6.10
2022-11-22T05:24:37.416Z,4.30
2022-11-22T05:27:44.610Z,3.80
2022-11-22T05:30:23.376Z,2.90
2022-11-22T05:34:06.266Z,6.00
2022-11-22T05:35:07.073Z,6.80
2022-11-22T05:38:32.708Z,5.20
2022-11-22T05:41:39.531Z,4.60
2022-11-22T05:42:40.685Z,3.30
2022-11-22T05:46:01.892Z,5.40
2022-11-22T05:55:20.979Z,3.00
2022-11-22T05:56:21.730Z,3.90
2022-11-22T06:05:00.676Z,4.70
2022-11-22T06:06:01.599Z,5.20
2022-11-22T06:07:06.817Z,2.70
2022-11-22T06:08:01.518Z,5.90
2022-11-22T06:09:01.408Z,3.30
2022-11-22T06:10:01.432Z,3.70
2022-11-22T06:11:01.389Z,3.10
2022-11-22T06:12:01.377Z,3.10
2022-11-22T06:13:01.357Z,4.90
2022-11-22T06:14:01.360Z,3.10
2022-11-22T06:15:01.344Z,2.90
2022-11-22T06:16:01.328Z,4.20
2022-11-22T06:17:01.317Z,2.40
2022-11-22T06:18:01.294Z,3.70
2022-11-22T06:19:01.287Z,4.60
2022-11-22T06:20:05.810Z,5.20
2022-11-22T06:21:01.257Z,3.00
2022-11-22T06:22:01.244Z,3.80
2022-11-22T06:23:01.237Z,2.60
2022-11-22T06:24:01.212Z,3.60
2022-11-22T06:25:01.215Z,5.20
2022-11-22T06:26:01.194Z,5.00
2022-11-22T06:27:01.183Z,4.10
2022-11-22T06:28:01.166Z,5.40
2022-11-22T06:29:01.142Z,4.30
2022-11-22T06:30:01.160Z,4.70
2022-11-22T06:31:01.349Z,2.90
2022-11-22T06:32:03.797Z,2.90
2022-11-22T06:33:01.144Z,2.20
2022-11-22T06:34:01.080Z,4.20
2022-11-22T06:35:01.082Z,2.40
2022-11-22T06:36:01.074Z,3.00
2022-11-22T06:37:01.041Z,3.00
2022-11-22T06:38:01.204Z,3.40
2022-11-22T06:39:01.050Z,4.50
2022-11-22T06:40:01.044Z,3.60
2022-11-22T06:41:00.984Z,3.60
2022-11-22T06:42:00.988Z,2.50
2022-11-22T06:43:01.053Z,3.90
2022-11-22T06:44:00.951Z,4.10
2022-11-22T06:45:00.966Z,5.00
2022-11-22T06:46:00.925Z,3.70
2022-11-22T06:47:01.000Z,3.20
2022-11-22T06:48:00.906Z,3.00
2022-11-22T06:49:00.876Z,3.80
2022-11-22T06:50:00.872Z,5.20
2022-11-22T06:51:00.856Z,3.50
2022-11-22T06:52:00.837Z,2.20
2022-11-22T06:53:00.840Z,5.10
2022-11-22T06:54:00.816Z,3.00
2022-11-22T06:55:00.798Z,4.20
2022-11-22T06:56:01.601Z,3.40
2022-11-22T06:57:00.777Z,3.90
2022-11-22T06:58:00.784Z,4.70
2022-11-22T06:59:00.784Z,2.30
2022-11-22T07:00:00.918Z,2.90
2022-11-22T07:01:00.791Z,3.40
2022-11-22T07:02:06.095Z,3.60
2022-11-22T07:03:00.714Z,3.30
2022-11-22T07:04:00.693Z,4.50
2022-11-22T07:05:24.625Z,3.80
2022-11-22T07:06:00.667Z,4.30
2022-11-22T07:07:00.678Z,4.60
2022-11-22T07:08:06.549Z,4.90
2022-11-22T07:09:00.635Z,2.00
2022-11-22T07:10:00.602Z,3.40
2022-11-22T07:11:00.624Z,4.80
2022-11-22T07:12:00.570Z,6.00
2022-11-22T07:13:00.581Z,3.70
2022-11-22T07:14:06.921Z,3.90
2022-11-22T07:15:00.544Z,4.90
2022-11-22T07:16:00.534Z,4.70
2022-11-22T07:17:00.513Z,2.60
2022-11-22T07:18:00.513Z,4.60
2022-11-22T07:19:00.551Z,5.30
2022-11-22T07:20:00.482Z,3.30
2022-11-22T07:21:00.454Z,2.90
2022-11-22T07:22:00.450Z,6.00
2022-11-22T07:23:00.430Z,5.80
2022-11-22T07:24:00.411Z,3.70
2022-11-22T07:25:00.417Z,4.70
2022-11-22T07:26:00.410Z,7.50
2022-11-22T07:27:00.391Z,4.40
2022-11-22T07:28:00.384Z,3.10
2022-11-22T07:29:00.374Z,4.50
2022-11-22T07:30:00.332Z,5.50
2022-11-22T07:31:00.333Z,6.70
2022-11-22T07:32:00.313Z,4.90
2022-11-22T07:33:00.294Z,10.30
2022-11-22T07:34:00.281Z,6.50
2022-11-22T07:35:00.269Z,5.30
2022-11-22T07:36:00.239Z,5.60
2022-11-22T07:37:04.811Z,6.10
2022-11-22T07:38:00.243Z,6.10
2022-11-22T07:39:00.218Z,7.30
2022-11-22T07:40:00.212Z,7.60
2022-11-22T07:41:00.203Z,6.50
2022-11-22T07:42:00.193Z,5.60
2022-11-22T07:43:00.163Z,4.90
2022-11-22T07:44:00.144Z,5.90
2022-11-22T07:45:00.138Z,4.30
2022-11-22T07:46:00.112Z,7.60
2022-11-22T07:47:00.154Z,4.60
2022-11-22T07:48:00.107Z,7.30
2022-11-22T07:49:00.086Z,5.70
2022-11-22T07:50:00.060Z,9.70
2022-11-22T07:51:00.050Z,6.10
2022-11-22T07:52:00.055Z,5.70
2022-11-22T07:53:00.045Z,5.40
2022-11-22T07:54:00.029Z,5.20
2022-11-22T07:55:00.028Z,6.00
2022-11-22T07:56:00.005Z,7.20
2022-11-22T07:56:59.977Z,6.40
2022-11-22T07:58:00.002Z,10.30
2022-11-22T07:58:59.966Z,8.50
2022-11-22T07:59:59.939Z,8.60
2022-11-22T08:00:59.922Z,7.10
2022-11-22T08:02:00.004Z,8.00
2022-11-22T08:02:59.910Z,11.20
2022-11-22T08:03:59.880Z,6.30
2022-11-22T08:04:59.877Z,7.70
2022-11-22T08:05:59.853Z,7.40
2022-11-22T08:06:59.865Z,8.20
2022-11-22T08:07:59.829Z,7.10
2022-11-22T08:09:02.259Z,7.40
2022-11-22T08:09:59.805Z,5.80
2022-11-22T08:10:59.796Z,9.00
2022-11-22T08:11:59.774Z,6.10
2022-11-22T08:12:59.762Z,7.10
2022-11-22T08:13:59.872Z,7.50
2022-11-22T08:14:59.735Z,6.10
2022-11-22T08:16:05.011Z,8.20
2022-11-22T08:16:59.710Z,6.90
2022-11-22T08:17:59.715Z,7.30
2022-11-22T08:19:07.186Z,7.10
2022-11-22T08:19:59.655Z,5.90
2022-11-22T08:20:59.653Z,4.80
2022-11-22T08:21:59.640Z,6.30
2022-11-22T08:22:59.619Z,6.90
2022-11-22T08:23:59.636Z,7.60
2022-11-22T08:24:59.589Z,7.40
2022-11-22T08:25:59.574Z,6.30
2022-11-22T08:26:59.603Z,7.40
2022-11-22T08:27:59.561Z,6.20
2022-11-22T08:28:59.550Z,10.50
2022-11-22T08:29:59.522Z,6.60
2022-11-22T08:30:59.530Z,6.10
2022-11-22T08:31:59.505Z,13.10
2022-11-22T08:32:59.498Z,8.00
2022-11-22T08:33:59.482Z,9.80
2022-11-22T08:34:59.456Z,6.50
2022-11-22T08:35:59.440Z,9.30
2022-11-22T08:36:59.451Z,8.00
2022-11-22T08:37:59.414Z,7.20
2022-11-22T08:38:59.405Z,11.40
2022-11-22T08:39:59.417Z,10.00
2022-11-22T08:40:59.383Z,5.20
2022-11-22T08:41:59.385Z,9.10
2022-11-22T08:42:59.372Z,9.90
2022-11-22T08:43:59.375Z,9.10
2022-11-22T08:44:59.323Z,7.90
2022-11-22T08:45:59.337Z,8.10
2022-11-22T08:46:59.306Z,8.30
2022-11-22T08:47:59.314Z,7.30
2022-11-22T08:48:59.278Z,10.70
2022-11-22T08:49:59.259Z,6.30
2022-11-22T08:50:59.239Z,7.70
2022-11-22T08:51:59.267Z,5.40
2022-11-22T08:52:59.237Z,9.40
2022-11-22T08:53:59.200Z,8.00
2022-11-22T08:54:59.202Z,5.20
2022-11-22T08:55:59.259Z,7.10
2022-11-22T08:56:59.171Z,8.80
2022-11-22T08:57:59.194Z,8.20
2022-11-22T08:58:59.169Z,8.50
2022-11-22T08:59:59.129Z,7.50
2022-11-22T09:00:59.132Z,7.60
2022-11-22T09:01:59.194Z,7.80
2022-11-22T09:02:59.095Z,9.50
2022-11-22T09:03:59.075Z,5.40
2022-11-22T09:04:59.057Z,13.20
2022-11-22T09:09:22.245Z,10.10
2022-11-22T09:09:58.996Z,9.90
2022-11-22T09:10:58.975Z,7.30
2022-11-22T09:11:58.975Z,10.60
2022-11-22T09:12:58.954Z,10.00
2022-11-22T09:13:59.144Z,10.10
2022-11-22T09:14:58.930Z,8.30
2022-11-22T09:15:58.956Z,9.60
2022-11-22T09:16:58.898Z,9.00
2022-11-22T09:17:58.887Z,6.80
2022-11-22T09:18:58.880Z,8.20
2022-11-22T09:19:58.922Z,10.40
2022-11-22T09:20:58.845Z,10.10
2022-11-22T09:21:58.865Z,11.30
2022-11-22T09:22:58.828Z,6.40
2022-11-22T09:23:58.852Z,8.70
2022-11-22T09:24:58.790Z,11.20
2022-11-22T09:25:58.790Z,13.40
2022-11-22T09:26:58.769Z,6.80
2022-11-22T09:27:58.760Z,9.60
2022-11-22T09:28:58.773Z,12.00
2022-11-22T09:29:58.732Z,8.90
2022-11-22T09:30:58.721Z,10.60
2022-11-22T09:31:58.723Z,8.50
2022-11-22T09:32:58.688Z,9.90
2022-11-22T09:33:58.692Z,10.20
2022-11-22T09:34:58.688Z,8.70
2022-11-22T09:35:58.656Z,9.30
2022-11-22T09:36:58.649Z,11.60
2022-11-22T09:37:58.640Z,15.00
2022-11-22T09:38:58.615Z,8.60
2022-11-22T09:39:58.594Z,5.90
2022-11-22T09:40:58.604Z,6.20
2022-11-22T09:41:58.586Z,10.50
2022-11-22T09:42:58.584Z,7.90
2022-11-22T09:43:58.548Z,11.00
2022-11-22T09:44:58.531Z,10.40
2022-11-22T09:45:58.515Z,8.00
2022-11-22T09:46:58.543Z,5.80
2022-11-22T09:47:58.489Z,9.80
2022-11-22T09:48:58.499Z,8.30
2022-11-22T09:49:58.482Z,6.90
2022-11-22T09:50:58.457Z,10.90
2022-11-22T09:51:58.446Z,8.50
2022-11-22T09:52:58.448Z,7.90
2022-11-22T09:53:58.423Z,6.00
2022-11-22T09:54:58.429Z,10.60
2022-11-22T09:55:58.382Z,7.30
2022-11-22T09:56:58.374Z,7.70
2022-11-22T09:57:58.366Z,9.00
2022-11-22T09:58:58.363Z,8.80
2022-11-22T09:59:58.337Z,13.30
2022-11-22T10:00:58.348Z,5.10
2022-11-22T10:02:03.449Z,11.10
2022-11-22T10:03:00.652Z,10.50
2022-11-22T10:03:58.293Z,8.60
2022-11-22T10:04:58.270Z,8.40
2022-11-22T10:05:58.252Z,7.50
2022-11-22T10:06:58.239Z,10.30
2022-11-22T10:07:58.228Z,9.90
2022-11-22T10:08:58.238Z,12.20
2022-11-22T10:09:58.208Z,10.90
2022-11-22T10:10:58.198Z,9.80
2022-11-22T10:11:58.174Z,10.80
2022-11-22T10:12:58.169Z,14.80
2022-11-22T10:13:58.147Z,8.20
2022-11-22T10:14:58.162Z,9.00
2022-11-22T10:15:58.121Z,8.40
2022-11-22T10:16:58.153Z,10.70
2022-11-22T10:17:58.108Z,6.50
2022-11-22T10:18:58.091Z,10.20
2022-11-22T10:19:58.072Z,10.00
2022-11-22T10:20:58.062Z,12.20
2022-11-22T10:21:58.051Z,14.00
2022-11-22T10:22:58.027Z,8.40
2022-11-22T10:23:58.015Z,12.10
2022-11-22T10:24:58.004Z,6.60
2022-11-22T10:25:57.996Z,12.50
2022-11-22T10:26:57.979Z,11.60
2022-11-22T10:28:00.823Z,12.70
2022-11-22T10:28:57.952Z,11.60
2022-11-22T10:29:57.935Z,8.80
2022-11-22T10:30:57.963Z,10.00
2022-11-22T10:31:57.910Z,11.80
2022-11-22T10:32:57.901Z,10.10
2022-11-22T10:33:57.901Z,8.10
2022-11-22T10:34:57.873Z,9.00
2022-11-22T10:35:57.862Z,11.40
2022-11-22T10:36:57.864Z,13.10
2022-11-22T10:37:57.832Z,10.60
2022-11-22T10:38:57.828Z,11.10
2022-11-22T10:39:57.812Z,9.90
2022-11-22T10:40:57.798Z,6.80
2022-11-22T10:41:57.775Z,13.10
2022-11-22T10:42:57.762Z,6.70
2022-11-22T10:43:57.783Z,11.10
2022-11-22T10:44:57.751Z,8.40
2022-11-22T10:45:57.740Z,6.80
2022-11-22T10:46:57.733Z,9.60
2022-11-22T10:47:57.708Z,13.80
2022-11-22T10:48:57.687Z,7.70
2022-11-22T10:49:57.688Z,10.10
2022-11-22T10:50:57.668Z,9.20
2022-11-22T10:51:57.660Z,9.30
2022-11-22T10:52:57.646Z,8.70
2022-11-22T10:54:03.126Z,8.90
2022-11-22T10:54:57.618Z,10.70
2022-11-22T10:55:57.618Z,9.70
2022-11-22T10:56:57.592Z,10.00
2022-11-22T10:57:57.571Z,11.40
2022-11-22T10:58:57.555Z,13.00
2022-11-22T10:59:57.571Z,12.20
2022-11-22T11:00:57.570Z,10.90
2022-11-22T11:01:57.521Z,13.10
2022-11-22T11:02:57.512Z,7.90
2022-11-22T11:03:57.500Z,8.20
2022-11-22T11:04:57.504Z,9.70
2022-11-22T11:07:11.620Z,9.20
2022-11-22T11:08:15.243Z,9.10
2022-11-22T11:10:02.892Z,10.30
2022-11-22T11:10:23.594Z,8.10
2022-11-22T11:10:57.402Z,11.80
2022-11-22T11:11:57.390Z,11.00
2022-11-22T11:12:57.373Z,10.10
2022-11-22T11:13:57.365Z,9.50
2022-11-22T11:14:57.353Z,11.30
2022-11-22T11:15:57.335Z,9.80
2022-11-22T11:16:57.321Z,9.00
2022-11-22T11:17:57.344Z,8.00
2022-11-22T11:18:57.307Z,8.50
2022-11-22T11:19:57.296Z,6.60
2022-11-22T11:20:57.270Z,6.80
2022-11-22T11:21:57.264Z,4.30
2022-11-22T11:23:57.237Z,10.80
2022-11-22T11:24:57.213Z,9.10
2022-11-22T11:25:57.223Z,5.80
2022-11-22T11:26:57.194Z,6.70
2022-11-22T11:27:57.199Z,7.80
2022-11-22T11:28:57.160Z,8.90
2022-11-22T11:29:57.154Z,7.30
2022-11-22T11:30:57.133Z,9.90
2022-11-22T11:31:57.126Z,6.20
2022-11-22T11:32:57.129Z,10.40
2022-11-22T11:33:57.096Z,8.20
2022-11-22T11:34:57.095Z,10.20
2022-11-22T11:35:57.102Z,7.70
2022-11-22T11:36:57.065Z,8.00
2022-11-22T11:37:57.062Z,11.10
2022-11-22T11:38:57.033Z,4.50
2022-11-22T11:39:57.015Z,8.90
2022-11-22T11:40:57.003Z,7.40
2022-11-22T11:41:57.003Z,8.30
2022-11-22T11:42:57.034Z,6.90
2022-11-22T11:43:56.964Z,5.50
2022-11-22T11:44:56.948Z,8.10
2022-11-22T11:45:56.939Z,6.40
2022-11-22T11:46:56.933Z,7.90
2022-11-22T11:47:56.909Z,8.70
2022-11-22T11:48:56.907Z,5.40
2022-11-22T11:49:56.882Z,4.90
2022-11-22T11:50:56.876Z,4.10
2022-11-22T11:51:56.871Z,7.80
2022-11-22T11:52:56.837Z,6.90
2022-11-22T11:53:56.895Z,8.20
2022-11-22T11:54:56.843Z,5.20
2022-11-22T11:55:56.809Z,6.10
2022-11-22T11:56:56.801Z,7.00
2022-11-22T11:57:56.780Z,7.60
2022-11-22T11:58:56.776Z,7.40
2022-11-22T11:59:56.746Z,6.70
2022-11-22T12:00:56.737Z,6.60
2022-11-22T12:01:56.811Z,9.20
2022-11-22T12:02:56.712Z,6.60
2022-11-22T12:03:56.693Z,6.30
2022-11-22T12:04:56.682Z,6.50
2022-11-22T12:05:56.676Z,10.10
2022-11-22T12:07:02.797Z,7.30
2022-11-22T12:07:56.752Z,8.40
2022-11-22T12:08:56.657Z,6.90
2022-11-22T12:09:56.631Z,8.40
2022-11-22T12:10:56.604Z,6.80
2022-11-22T12:11:56.599Z,6.10
2022-11-22T12:13:01.444Z,7.80
2022-11-22T12:15:10.801Z,10.50
2022-11-22T12:48:28.389Z,6.70
2022-11-22T12:48:33.893Z,6.90
2022-11-22T12:49:33.820Z,4.70
2022-11-22T12:50:33.820Z,5.00
2022-11-22T12:51:33.802Z,6.50
2022-11-22T12:52:33.789Z,5.00
2022-11-22T12:53:54.799Z,4.00
2022-11-22T12:54:33.924Z,3.60
2022-11-22T12:55:33.740Z,3.80
2022-11-22T12:56:34.266Z,6.80
2022-11-22T12:57:33.749Z,8.20
2022-11-22T12:58:33.708Z,8.10
2022-11-22T12:59:33.694Z,5.10
2022-11-22T13:00:33.695Z,7.60
2022-11-22T13:01:33.798Z,6.30
2022-11-22T13:02:33.678Z,7.60
2022-11-22T13:03:33.637Z,7.90
2022-11-22T13:04:33.730Z,4.20
2022-11-22T13:05:33.628Z,6.40
2022-11-22T13:06:33.616Z,8.30
2022-11-22T13:07:33.649Z,7.00
2022-11-22T13:08:33.789Z,8.00
2022-11-22T13:09:33.612Z,7.90
2022-11-22T13:10:33.556Z,10.20
2022-11-22T13:11:33.539Z,8.40
2022-11-22T13:12:33.560Z,6.30
2022-11-22T13:13:33.524Z,5.60
2022-11-22T13:14:33.808Z,9.10
2022-11-22T13:15:33.504Z,8.70
2022-11-22T13:16:33.468Z,4.40
2022-11-22T13:17:33.468Z,9.40
2022-11-22T13:18:33.495Z,7.00
2022-11-22T13:19:33.441Z,9.30
2022-11-22T13:20:36.866Z,4.70
2022-11-22T13:21:33.438Z,7.00
2022-11-22T13:22:33.988Z,5.20
2022-11-22T13:23:33.390Z,8.40
2022-11-22T13:24:33.758Z,5.20
2022-11-22T13:25:33.405Z,8.10
2022-11-22T13:26:33.337Z,7.30
2022-11-22T13:27:33.322Z,8.30
2022-11-22T13:28:33.329Z,7.60
2022-11-22T13:29:33.316Z,10.80
2022-11-22T13:30:33.360Z,7.50
2022-11-22T13:31:37.944Z,7.00
2022-11-22T13:32:33.260Z,6.40
2022-11-22T13:33:33.252Z,5.80
2022-11-22T13:34:33.501Z,7.10
2022-11-22T13:35:33.214Z,5.10
2022-11-22T13:36:33.236Z,6.00
2022-11-22T13:37:33.184Z,4.80
2022-11-22T13:38:33.184Z,8.60
2022-11-22T13:39:33.155Z,8.40
2022-11-22T13:40:33.173Z,6.70
2022-11-22T13:41:33.142Z,5.90
2022-11-22T13:42:33.120Z,9.30
2022-11-22T13:43:33.146Z,8.20
2022-11-22T13:44:33.619Z,7.40
2022-11-22T13:45:33.082Z,6.00
2022-11-22T13:46:33.081Z,8.10
2022-11-22T13:47:33.068Z,5.60
2022-11-22T13:48:33.048Z,6.60
2022-11-22T13:49:37.495Z,9.00
2022-11-22T13:50:33.026Z,3.70
2022-11-22T13:51:33.017Z,9.80
2022-11-22T13:52:32.999Z,7.60
2022-11-22T13:53:32.979Z,3.70
2022-11-22T13:54:33.507Z,5.00
2022-11-22T13:55:37.245Z,6.20
2022-11-22T13:56:32.942Z,6.70
2022-11-22T13:57:32.930Z,7.30
2022-11-22T13:58:32.913Z,7.90
2022-11-22T13:59:33.213Z,5.90
2022-11-22T14:00:32.878Z,8.00
2022-11-22T14:01:32.923Z,4.00
2022-11-22T14:02:32.862Z,6.30
2022-11-22T14:03:32.857Z,7.00
2022-11-22T14:04:32.946Z,4.50
2022-11-22T14:05:38.081Z,6.40
2022-11-22T14:06:32.802Z,6.60
2022-11-22T14:07:32.889Z,8.10
2022-11-22T14:08:32.787Z,5.20
2022-11-22T14:09:32.796Z,6.70
2022-11-22T14:10:32.758Z,9.70
2022-11-22T14:11:35.212Z,5.50
2022-11-22T14:12:32.725Z,6.20
2022-11-22T14:13:32.736Z,6.40
2022-11-22T14:14:33.016Z,6.30
2022-11-22T14:15:32.690Z,6.50
2022-11-22T14:16:32.671Z,7.60
2022-11-22T14:17:35.678Z,6.00
2022-11-22T14:18:32.688Z,8.60
2022-11-22T14:19:32.670Z,11.20
2022-11-22T14:20:32.622Z,8.40
2022-11-22T14:21:32.671Z,5.20
2022-11-22T14:22:32.611Z,8.50
2022-11-22T14:23:32.598Z,7.00
2022-11-22T14:24:32.907Z,4.70
2022-11-22T14:25:32.557Z,6.60
2022-11-22T14:26:32.570Z,7.90
2022-11-22T14:27:32.546Z,5.70
2022-11-22T14:28:32.517Z,5.50
2022-11-22T14:29:32.513Z,6.40
2022-11-22T14:30:32.497Z,6.30
2022-11-22T14:31:32.491Z,5.60
2022-11-22T14:32:32.471Z,6.20
2022-11-22T14:33:32.457Z,7.10
2022-11-22T14:34:32.820Z,6.20
2022-11-22T14:35:32.436Z,7.50
2022-11-22T14:36:32.457Z,7.40
2022-11-22T14:37:32.413Z,7.00
2022-11-22T14:38:32.390Z,5.90
2022-11-22T14:39:33.877Z,9.70
2022-11-22T14:40:32.388Z,6.80
2022-11-22T14:41:32.377Z,6.70
2022-11-22T14:42:32.323Z,8.30
2022-11-22T14:43:32.326Z,6.50
2022-11-22T14:44:32.333Z,6.60
2022-11-22T14:45:32.289Z,9.30
2022-11-22T14:46:52.180Z,7.40
2022-11-22T14:47:32.264Z,7.30
2022-11-22T14:48:32.253Z,6.30
2022-11-22T14:49:38.275Z,8.00
2022-11-22T14:50:32.825Z,7.30
2022-11-22T14:51:32.786Z,8.50
2022-11-22T14:52:32.201Z,12.60
2022-11-22T14:53:32.210Z,8.00
2022-11-22T14:54:32.174Z,5.50
2022-11-22T14:55:32.158Z,9.70
2022-11-22T14:56:32.164Z,8.30
2022-11-22T14:57:32.138Z,4.00
2022-11-22T14:58:32.126Z,6.60
2022-11-22T14:59:32.449Z,6.90
2022-11-22T15:00:32.092Z,10.00
2022-11-22T15:01:32.139Z,7.50
2022-11-22T15:02:32.153Z,8.30
2022-11-22T15:03:32.083Z,11.60
2022-11-22T15:09:15.370Z,9.30
2022-11-22T15:09:48.730Z,8.50
2022-11-22T15:09:58.567Z,10.70
2022-11-22T15:10:46.330Z,9.30
2022-11-22T15:11:46.163Z,8.30
2022-11-22T15:12:46.145Z,7.90
2022-11-22T15:13:46.147Z,9.70
2022-11-22T15:14:46.356Z,6.40
2022-11-22T15:57:19.603Z,8.90
2022-11-22T15:58:17.270Z,8.50
2022-11-22T15:59:17.257Z,9.60
2022-11-22T16:00:17.251Z,10.60
2022-11-22T16:01:19.268Z,7.10
2022-11-22T16:02:17.229Z,7.20
2022-11-22T16:03:17.242Z,9.40
2022-11-22T16:04:17.220Z,7.50
2022-11-22T16:06:08.611Z,8.10
2022-11-22T16:06:17.188Z,8.70
2022-11-22T16:07:17.336Z,9.60
2022-11-22T16:08:17.145Z,9.40
2022-11-22T16:09:17.136Z,7.90
2022-11-22T16:10:17.124Z,9.90
2022-11-22T16:11:17.104Z,10.50
2022-11-22T16:12:17.085Z,7.20
2022-11-22T16:13:17.089Z,7.40
2022-11-22T16:14:17.076Z,7.10
2022-11-22T16:15:17.056Z,6.50
2022-11-22T16:16:17.030Z,10.10
2022-11-22T16:17:17.047Z,8.80
2022-11-22T16:18:17.004Z,7.00
2022-11-22T16:19:17.003Z,9.70
2022-11-22T16:20:16.984Z,10.70
2022-11-22T16:21:16.979Z,6.50
2022-11-22T16:22:16.953Z,6.10
2022-11-22T16:23:16.942Z,7.30
2022-11-22T16:24:16.931Z,8.80
2022-11-22T16:25:16.919Z,10.60
2022-11-22T16:26:16.938Z,9.90
2022-11-22T16:27:16.907Z,11.20
2022-11-22T16:28:16.888Z,8.20
2022-11-22T16:29:16.869Z,8.60
2022-11-22T16:30:22.197Z,8.90
2022-11-22T16:31:16.844Z,6.40
2022-11-22T16:32:16.899Z,8.50
2022-11-22T16:33:16.831Z,8.10
2022-11-22T16:34:16.819Z,9.60
2022-11-22T16:35:28.974Z,7.80
2022-11-22T16:36:16.795Z,9.20
2022-11-22T16:37:16.770Z,7.20
2022-11-22T16:38:16.780Z,10.10
2022-11-22T16:39:16.736Z,7.50
2022-11-22T16:40:16.737Z,7.40
2022-11-22T16:41:16.733Z,7.40
2022-11-22T16:42:16.751Z,5.40
2022-11-22T16:43:16.747Z,8.70
2022-11-22T16:44:16.701Z,6.70
2022-11-22T16:45:16.676Z,10.20
2022-11-22T16:46:16.648Z,9.50
2022-11-22T16:47:16.634Z,8.40
2022-11-22T16:48:31.388Z,10.30
2022-11-22T16:49:16.640Z,9.40
2022-11-22T16:50:16.638Z,10.40
2022-11-22T16:51:16.595Z,13.40
2022-11-22T16:52:16.610Z,11.30
2022-11-22T16:53:16.561Z,9.40
2022-11-22T16:54:16.562Z,6.20
2022-11-22T16:55:16.543Z,11.00
2022-11-22T16:56:16.538Z,9.60
2022-11-22T16:57:16.533Z,6.80
2022-11-22T16:58:16.510Z,6.80
2022-11-22T16:59:16.508Z,7.80
2022-11-22T17:00:16.471Z,8.10
2022-11-22T17:01:16.561Z,8.20
2022-11-22T17:02:16.471Z,8.60
2022-11-22T17:03:16.438Z,7.40
2022-11-22T17:04:16.419Z,10.10
2022-11-22T17:05:16.454Z,7.80
2022-11-22T17:06:16.404Z,5.70
2022-11-22T17:07:16.491Z,7.10
2022-11-22T17:08:16.392Z,7.30
2022-11-22T17:09:16.379Z,7.60
2022-11-22T17:10:16.350Z,5.00
2022-11-22T17:11:16.339Z,7.60
2022-11-22T17:12:16.335Z,8.30
2022-11-22T17:13:16.328Z,6.40
2022-11-22T17:14:16.309Z,6.60
2022-11-22T17:15:16.302Z,7.80
2022-11-22T17:16:16.271Z,8.10